sensor_id;sensor_type;location;lat;lon;timestamp;pressure;altitude;pressure_sealevel;temperature;humidity
45621;BME280;31345;51.522;10.702;2024-02-26T00:01:07;97745.28;;;0.29;100.00
45621;BME280;31345;51.522;10.702;2024-02-26T00:03:35;97737.56;;;0.29;100.00
45621;BME280;31345;51.522;10.702;2024-02-26T00:06:03;97731.28;;;0.15;100.00
45621;BME280;31345;51.522;10.702;2024-02-26T00:08:36;97728.09;;;0.10;100.00
45621;BME280;31345;51.522;10.702;2024-02-26T00:11:03;97730.25;;;0.00;100.00
45621;BME280;31345;51.522;10.702;2024-02-26T00:13:37;97727.13;;;0.13;100.00
45621;BME280;31345;51.522;10.702;2024-02-26T00:16:05;97723.44;;;0.18;100.00
45621;BME280;31345;51.522;10.702;2024-02-26T00:18:38;97714.75;;;0.21;100.00
45621;BME280;31345;51.522;10.702;2024-02-26T00:21:06;97720.88;;;0.18;100.00
45621;BME280;31345;51.522;10.702;2024-02-26T00:23:38;97708.22;;;0.14;100.00
45621;BME280;31345;51.522;10.702;2024-02-26T00:26:11;97704.13;;;0.10;100.00
45621;BME280;31345;51.522;10.702;2024-02-26T00:28:45;97706.69;;;0.10;100.00
45621;BME280;31345;51.522;10.702;2024-02-26T00:31:17;97708.59;;;0.06;100.00
45621;BME280;31345;51.522;10.702;2024-02-26T00:33:45;97702.75;;;0.02;100.00
45621;BME280;31345;51.522;10.702;2024-02-26T00:36:13;97696.59;;;0.06;100.00
45621;BME280;31345;51.522;10.702;2024-02-26T00:38:45;97695.19;;;-0.01;100.00
45621;BME280;31345;51.522;10.702;2024-02-26T00:41:22;97692.00;;;-0.06;100.00
45621;BME280;31345;51.522;10.702;2024-02-26T00:43:55;97694.41;;;-0.03;100.00
45621;BME280;31345;51.522;10.702;2024-02-26T00:46:23;97692.75;;;-0.04;100.00
45621;BME280;31345;51.522;10.702;2024-02-26T00:48:56;97687.34;;;0.02;100.00
45621;BME280;31345;51.522;10.702;2024-02-26T00:51:28;97689.19;;;-0.01;100.00
45621;BME280;31345;51.522;10.702;2024-02-26T00:53:56;97685.59;;;0.03;100.00
45621;BME280;31345;51.522;10.702;2024-02-26T00:56:24;97689.06;;;0.02;100.00
45621;BME280;31345;51.522;10.702;2024-02-26T00:58:58;97694.47;;;-0.04;100.00
45621;BME280;31345;51.522;10.702;2024-02-26T01:01:25;97694.28;;;0.00;100.00
45621;BME280;31345;51.522;10.702;2024-02-26T01:03:58;97696.91;;;-0.01;100.00
45621;BME280;31345;51.522;10.702;2024-02-26T01:06:31;97697.56;;;0.04;100.00
45621;BME280;31345;51.522;10.702;2024-02-26T01:08:58;97694.22;;;0.02;100.00
45621;BME280;31345;51.522;10.702;2024-02-26T01:11:26;97697.63;;;0.02;100.00
45621;BME280;31345;51.522;10.702;2024-02-26T01:13:53;97684.91;;;-0.01;100.00
45621;BME280;31345;51.522;10.702;2024-02-26T01:16:24;97690.25;;;-0.25;100.00
45621;BME280;31345;51.522;10.702;2024-02-26T01:18:56;97690.88;;;-0.20;100.00
45621;BME280;31345;51.522;10.702;2024-02-26T01:21:29;97691.09;;;-0.05;100.00
45621;BME280;31345;51.522;10.702;2024-02-26T01:23:56;97689.91;;;-0.17;100.00
45621;BME280;31345;51.522;10.702;2024-02-26T01:26:29;97694.22;;;-0.17;100.00
45621;BME280;31345;51.522;10.702;2024-02-26T01:28:57;97692.47;;;-0.17;100.00
45621;BME280;31345;51.522;10.702;2024-02-26T01:31:31;97691.66;;;-0.17;100.00
45621;BME280;31345;51.522;10.702;2024-02-26T01:33:58;97691.00;;;-0.23;100.00
45621;BME280;31345;51.522;10.702;2024-02-26T01:36:26;97692.94;;;-0.28;100.00
45621;BME280;31345;51.522;10.702;2024-02-26T01:38:53;97694.22;;;-0.17;100.00
45621;BME280;31345;51.522;10.702;2024-02-26T01:41:21;97701.56;;;-0.10;100.00
45621;BME280;31345;51.522;10.702;2024-02-26T01:43:49;97690.31;;;-0.07;100.00
45621;BME280;31345;51.522;10.702;2024-02-26T01:46:17;97687.81;;;-0.09;100.00
45621;BME280;31345;51.522;10.702;2024-02-26T01:48:47;97688.59;;;-0.07;100.00
45621;BME280;31345;51.522;10.702;2024-02-26T01:51:16;97679.00;;;-0.03;100.00
45621;BME280;31345;51.522;10.702;2024-02-26T01:53:49;97685.97;;;-0.05;100.00
45621;BME280;31345;51.522;10.702;2024-02-26T01:56:19;97682.59;;;-0.07;100.00
45621;BME280;31345;51.522;10.702;2024-02-26T01:58:52;97685.25;;;-0.09;100.00
45621;BME280;31345;51.522;10.702;2024-02-26T02:01:21;97678.44;;;-0.10;100.00
45621;BME280;31345;51.522;10.702;2024-02-26T02:03:58;97677.75;;;-0.13;100.00
45621;BME280;31345;51.522;10.702;2024-02-26T02:06:31;97683.94;;;-0.17;100.00
45621;BME280;31345;51.522;10.702;2024-02-26T02:09:04;97678.56;;;-0.32;100.00
45621;BME280;31345;51.522;10.702;2024-02-26T02:11:38;97676.34;;;-0.40;100.00
45621;BME280;31345;51.522;10.702;2024-02-26T02:14:11;97675.25;;;-0.34;100.00
45621;BME280;31345;51.522;10.702;2024-02-26T02:16:38;97680.22;;;-0.31;100.00
45621;BME280;31345;51.522;10.702;2024-02-26T02:19:07;97682.47;;;-0.23;100.00
45621;BME280;31345;51.522;10.702;2024-02-26T02:21:36;97683.22;;;-0.21;100.00
45621;BME280;31345;51.522;10.702;2024-02-26T02:24:09;97685.94;;;-0.24;100.00
45621;BME280;31345;51.522;10.702;2024-02-26T02:26:42;97686.16;;;-0.10;100.00
45621;BME280;31345;51.522;10.702;2024-02-26T02:29:09;97682.34;;;-0.20;100.00
45621;BME280;31345;51.522;10.702;2024-02-26T02:31:38;97681.50;;;-0.21;100.00
45621;BME280;31345;51.522;10.702;2024-02-26T02:34:06;97681.69;;;-0.45;100.00
45621;BME280;31345;51.522;10.702;2024-02-26T02:36:51;97682.53;;;-0.44;100.00
45621;BME280;31345;51.522;10.702;2024-02-26T02:39:19;97686.69;;;-0.41;100.00
45621;BME280;31345;51.522;10.702;2024-02-26T02:41:47;97684.75;;;-0.36;100.00
45621;BME280;31345;51.522;10.702;2024-02-26T02:44:19;97687.63;;;-0.23;100.00
45621;BME280;31345;51.522;10.702;2024-02-26T02:46:47;97687.50;;;-0.20;100.00
45621;BME280;31345;51.522;10.702;2024-02-26T02:49:16;97682.25;;;-0.19;100.00
45621;BME280;31345;51.522;10.702;2024-02-26T02:51:43;97683.88;;;-0.16;100.00
45621;BME280;31345;51.522;10.702;2024-02-26T02:54:12;97692.47;;;-0.17;100.00
45621;BME280;31345;51.522;10.702;2024-02-26T02:56:45;97691.78;;;-0.21;100.00
45621;BME280;31345;51.522;10.702;2024-02-26T02:59:18;97687.97;;;-0.12;100.00
45621;BME280;31345;51.522;10.702;2024-02-26T03:01:45;97680.47;;;-0.16;100.00
45621;BME280;31345;51.522;10.702;2024-02-26T03:04:13;97682.06;;;-0.14;100.00
45621;BME280;31345;51.522;10.702;2024-02-26T03:06:45;97684.50;;;-0.11;100.00
45621;BME280;31345;51.522;10.702;2024-02-26T03:09:14;97689.44;;;-0.06;100.00
45621;BME280;31345;51.522;10.702;2024-02-26T03:11:47;97692.56;;;0.01;100.00
45621;BME280;31345;51.522;10.702;2024-02-26T03:14:20;97690.53;;;-0.12;100.00
45621;BME280;31345;51.522;10.702;2024-02-26T03:16:53;97698.72;;;-0.03;100.00
45621;BME280;31345;51.522;10.702;2024-02-26T03:19:26;97691.09;;;-0.05;100.00
45621;BME280;31345;51.522;10.702;2024-02-26T03:21:54;97688.03;;;-0.13;100.00
45621;BME280;31345;51.522;10.702;2024-02-26T03:24:23;97687.53;;;-0.02;100.00
45621;BME280;31345;51.522;10.702;2024-02-26T03:26:55;97688.22;;;0.01;100.00
45621;BME280;31345;51.522;10.702;2024-02-26T03:29:28;97684.00;;;0.00;100.00
45621;BME280;31345;51.522;10.702;2024-02-26T03:32:01;97690.88;;;-0.00;100.00
45621;BME280;31345;51.522;10.702;2024-02-26T03:34:33;97697.69;;;0.01;100.00
45621;BME280;31345;51.522;10.702;2024-02-26T03:37:06;97693.38;;;0.01;100.00
45621;BME280;31345;51.522;10.702;2024-02-26T03:39:42;97684.91;;;-0.01;100.00
45621;BME280;31345;51.522;10.702;2024-02-26T03:42:10;97696.09;;;-0.02;100.00
45621;BME280;31345;51.522;10.702;2024-02-26T03:44:38;97703.72;;;-0.20;100.00
45621;BME280;31345;51.522;10.702;2024-02-26T03:47:05;97707.00;;;-0.37;100.00
45621;BME280;31345;51.522;10.702;2024-02-26T03:49:33;97705.25;;;-0.15;100.00
45621;BME280;31345;51.522;10.702;2024-02-26T03:52:05;97698.09;;;-0.09;100.00
45621;BME280;31345;51.522;10.702;2024-02-26T03:54:33;97694.56;;;-0.06;100.00
45621;BME280;31345;51.522;10.702;2024-02-26T03:57:02;97693.78;;;-0.27;100.00
45621;BME280;31345;51.522;10.702;2024-02-26T03:59:35;97698.50;;;-0.18;100.00
45621;BME280;31345;51.522;10.702;2024-02-26T04:02:08;97694.41;;;-0.03;100.00
45621;BME280;31345;51.522;10.702;2024-02-26T04:04:36;97696.59;;;0.06;100.00
45621;BME280;31345;51.522;10.702;2024-02-26T04:07:09;97701.78;;;0.05;100.00
45621;BME280;31345;51.522;10.702;2024-02-26T04:09:42;97706.78;;;0.08;100.00
45621;BME280;31345;51.522;10.702;2024-02-26T04:12:16;97705.66;;;0.14;100.00
45621;BME280;31345;51.522;10.702;2024-02-26T04:14:49;97708.88;;;0.19;100.00
45621;BME280;31345;51.522;10.702;2024-02-26T04:17:22;97712.75;;;0.09;100.00
45621;BME280;31345;51.522;10.702;2024-02-26T04:19:50;97715.38;;;0.07;100.00
45621;BME280;31345;51.522;10.702;2024-02-26T04:22:17;97714.09;;;-0.02;100.00
45621;BME280;31345;51.522;10.702;2024-02-26T04:24:45;97725.97;;;0.01;100.00
45621;BME280;31345;51.522;10.702;2024-02-26T04:27:12;97710.72;;;0.15;100.00
45621;BME280;31345;51.522;10.702;2024-02-26T04:29:41;97724.84;;;0.06;100.00
45621;BME280;31345;51.522;10.702;2024-02-26T04:32:14;97717.69;;;0.13;100.00
45621;BME280;31345;51.522;10.702;2024-02-26T04:34:47;97717.50;;;0.18;100.00
45621;BME280;31345;51.522;10.702;2024-02-26T04:37:19;97716.84;;;0.32;100.00
45621;BME280;31345;51.522;10.702;2024-02-26T04:39:47;97716.91;;;0.30;100.00
45621;BME280;31345;51.522;10.702;2024-02-26T04:42:14;97720.84;;;0.38;100.00
45621;BME280;31345;51.522;10.702;2024-02-26T04:44:43;97710.09;;;0.29;100.00
45621;BME280;31345;51.522;10.702;2024-02-26T04:47:11;97709.22;;;0.30;100.00
45621;BME280;31345;51.522;10.702;2024-02-26T04:49:44;97712.13;;;0.23;100.00
45621;BME280;31345;51.522;10.702;2024-02-26T04:52:12;97711.00;;;0.28;100.00
45621;BME280;31345;51.522;10.702;2024-02-26T04:54:44;97705.94;;;0.46;100.00
45621;BME280;31345;51.522;10.702;2024-02-26T04:57:12;97708.78;;;0.57;100.00
45621;BME280;31345;51.522;10.702;2024-02-26T04:59:46;97710.50;;;0.58;100.00
45621;BME280;31345;51.522;10.702;2024-02-26T05:02:18;97709.31;;;0.46;100.00
45621;BME280;31345;51.522;10.702;2024-02-26T05:04:46;97703.13;;;0.51;100.00
45621;BME280;31345;51.522;10.702;2024-02-26T05:07:14;97702.19;;;0.52;100.00
45621;BME280;31345;51.522;10.702;2024-02-26T05:09:48;97700.34;;;0.55;100.00
45621;BME280;31345;51.522;10.702;2024-02-26T05:12:21;97711.44;;;0.56;100.00
45621;BME280;31345;51.522;10.702;2024-02-26T05:14:50;97712.00;;;0.63;100.00
45621;BME280;31345;51.522;10.702;2024-02-26T05:17:18;97703.00;;;0.71;100.00
45621;BME280;31345;51.522;10.702;2024-02-26T05:19:46;97702.63;;;0.79;100.00
45621;BME280;31345;51.522;10.702;2024-02-26T05:22:13;97710.63;;;0.73;100.00
45621;BME280;31345;51.522;10.702;2024-02-26T05:24:47;97706.19;;;0.77;100.00
45621;BME280;31345;51.522;10.702;2024-02-26T05:27:14;97707.47;;;0.68;100.00
45621;BME280;31345;51.522;10.702;2024-02-26T05:29:47;97705.94;;;0.64;100.00
45621;BME280;31345;51.522;10.702;2024-02-26T05:32:21;97706.69;;;0.66;100.00
45621;BME280;31345;51.522;10.702;2024-02-26T05:34:53;97703.97;;;0.69;100.00
45621;BME280;31345;51.522;10.702;2024-02-26T05:37:21;97708.06;;;0.73;100.00
45621;BME280;31345;51.522;10.702;2024-02-26T05:39:49;97706.03;;;0.80;100.00
45621;BME280;31345;51.522;10.702;2024-02-26T05:42:21;97697.63;;;0.76;100.00
45621;BME280;31345;51.522;10.702;2024-02-26T05:44:54;97704.09;;;0.85;100.00
45621;BME280;31345;51.522;10.702;2024-02-26T05:47:23;97710.22;;;0.82;100.00
45621;BME280;31345;51.522;10.702;2024-02-26T05:49:55;97711.09;;;0.64;100.00
45621;BME280;31345;51.522;10.702;2024-02-26T05:52:25;97727.53;;;0.79;100.00
45621;BME280;31345;51.522;10.702;2024-02-26T05:54:53;97723.38;;;0.94;100.00
45621;BME280;31345;51.522;10.702;2024-02-26T05:57:25;97731.88;;;0.96;100.00
45621;BME280;31345;51.522;10.702;2024-02-26T05:59:53;97735.50;;;0.92;100.00
45621;BME280;31345;51.522;10.702;2024-02-26T06:02:27;97744.72;;;0.96;100.00
45621;BME280;31345;51.522;10.702;2024-02-26T06:04:59;97739.28;;;1.02;100.00
45621;BME280;31345;51.522;10.702;2024-02-26T06:07:32;97741.56;;;1.08;100.00
45621;BME280;31345;51.522;10.702;2024-02-26T06:10:00;97743.81;;;0.97;100.00
45621;BME280;31345;51.522;10.702;2024-02-26T06:12:27;97755.47;;;1.04;100.00
45621;BME280;31345;51.522;10.702;2024-02-26T06:14:57;97752.63;;;1.10;100.00
45621;BME280;31345;51.522;10.702;2024-02-26T06:17:29;97755.66;;;1.19;100.00
45621;BME280;31345;51.522;10.702;2024-02-26T06:20:01;97759.75;;;1.23;100.00
45621;BME280;31345;51.522;10.702;2024-02-26T06:22:30;97762.38;;;1.21;100.00
45621;BME280;31345;51.522;10.702;2024-02-26T06:25:03;97765.63;;;1.25;100.00
45621;BME280;31345;51.522;10.702;2024-02-26T06:27:31;97768.88;;;1.11;100.00
45621;BME280;31345;51.522;10.702;2024-02-26T06:30:05;97767.00;;;1.15;100.00
45621;BME280;31345;51.522;10.702;2024-02-26T06:32:34;97772.16;;;1.15;100.00
45621;BME280;31345;51.522;10.702;2024-02-26T06:35:02;97772.09;;;1.16;100.00
45621;BME280;31345;51.522;10.702;2024-02-26T06:37:32;97763.00;;;1.27;100.00
45621;BME280;31345;51.522;10.702;2024-02-26T06:40:06;97772.16;;;1.32;100.00
45621;BME280;31345;51.522;10.702;2024-02-26T06:42:34;97768.28;;;1.41;100.00
45621;BME280;31345;51.522;10.702;2024-02-26T06:45:02;97770.34;;;1.34;100.00
45621;BME280;31345;51.522;10.702;2024-02-26T06:47:36;97770.03;;;1.41;100.00
45621;BME280;31345;51.522;10.702;2024-02-26T06:50:11;97771.47;;;1.46;100.00
45621;BME280;31345;51.522;10.702;2024-02-26T06:52:39;97779.34;;;1.43;100.00
45621;BME280;31345;51.522;10.702;2024-02-26T06:55:07;97780.66;;;1.34;100.00
45621;BME280;31345;51.522;10.702;2024-02-26T06:57:35;97801.06;;;1.02;100.00
45621;BME280;31345;51.522;10.702;2024-02-26T07:00:08;97807.88;;;1.03;100.00
45621;BME280;31345;51.522;10.702;2024-02-26T07:02:42;97801.00;;;1.21;100.00
45621;BME280;31345;51.522;10.702;2024-02-26T07:05:09;97782.06;;;1.22;100.00
45621;BME280;31345;51.522;10.702;2024-02-26T07:07:42;97768.97;;;1.27;100.00
45621;BME280;31345;51.522;10.702;2024-02-26T07:10:15;97762.00;;;1.29;100.00
45621;BME280;31345;51.522;10.702;2024-02-26T07:12:48;97750.28;;;1.41;100.00
45621;BME280;31345;51.522;10.702;2024-02-26T07:15:16;97747.91;;;1.54;100.00
45621;BME280;31345;51.522;10.702;2024-02-26T07:17:45;97755.09;;;1.65;100.00
45621;BME280;31345;51.522;10.702;2024-02-26T07:20:19;97769.56;;;1.68;100.00
45621;BME280;31345;51.522;10.702;2024-02-26T07:22:47;97796.00;;;1.71;100.00
45621;BME280;31345;51.522;10.702;2024-02-26T07:25:15;97800.19;;;1.39;100.00
45621;BME280;31345;51.522;10.702;2024-02-26T07:27:42;97800.03;;;1.59;100.00
45621;BME280;31345;51.522;10.702;2024-02-26T07:30:11;97794.19;;;1.73;100.00
45621;BME280;31345;51.522;10.702;2024-02-26T07:32:38;97811.22;;;1.76;100.00
45621;BME280;31345;51.522;10.702;2024-02-26T07:35:12;97823.72;;;1.84;100.00
45621;BME280;31345;51.522;10.702;2024-02-26T07:37:41;97814.81;;;2.07;100.00
45621;BME280;31345;51.522;10.702;2024-02-26T07:40:13;97805.31;;;2.08;100.00
45621;BME280;31345;51.522;10.702;2024-02-26T07:42:41;97800.78;;;2.13;100.00
45621;BME280;31345;51.522;10.702;2024-02-26T07:45:09;97796.88;;;2.22;100.00
45621;BME280;31345;51.522;10.702;2024-02-26T07:47:42;97797.84;;;2.19;100.00
45621;BME280;31345;51.522;10.702;2024-02-26T07:50:16;97804.00;;;2.17;100.00
45621;BME280;31345;51.522;10.702;2024-02-26T07:52:44;97793.47;;;2.21;100.00
45621;BME280;31345;51.522;10.702;2024-02-26T07:55:12;97793.81;;;2.31;100.00
45621;BME280;31345;51.522;10.702;2024-02-26T07:57:43;97788.72;;;2.46;100.00
45621;BME280;31345;51.522;10.702;2024-02-26T08:00:11;97792.22;;;2.45;100.00
45621;BME280;31345;51.522;10.702;2024-02-26T08:02:43;97797.91;;;2.51;100.00
45621;BME280;31345;51.522;10.702;2024-02-26T08:05:11;97807.63;;;2.46;100.00
45621;BME280;31345;51.522;10.702;2024-02-26T08:07:40;97808.75;;;2.58;100.00
45621;BME280;31345;51.522;10.702;2024-02-26T08:10:13;97813.56;;;2.64;100.00
45621;BME280;31345;51.522;10.702;2024-02-26T08:12:45;97811.72;;;2.67;100.00
45621;BME280;31345;51.522;10.702;2024-02-26T08:15:13;97812.53;;;2.67;100.00
45621;BME280;31345;51.522;10.702;2024-02-26T08:17:40;97822.22;;;2.63;100.00
45621;BME280;31345;51.522;10.702;2024-02-26T08:20:13;97824.22;;;2.58;100.00
45621;BME280;31345;51.522;10.702;2024-02-26T08:22:42;97835.19;;;2.62;100.00
45621;BME280;31345;51.522;10.702;2024-02-26T08:25:15;97834.47;;;2.76;100.00
45621;BME280;31345;51.522;10.702;2024-02-26T08:27:44;97840.44;;;2.92;100.00
45621;BME280;31345;51.522;10.702;2024-02-26T08:30:18;97832.38;;;2.99;100.00
45621;BME280;31345;51.522;10.702;2024-02-26T08:32:47;97842.09;;;3.10;100.00
45621;BME280;31345;51.522;10.702;2024-02-26T08:35:20;97842.03;;;3.11;100.00
45621;BME280;31345;51.522;10.702;2024-02-26T08:37:49;97851.09;;;3.19;100.00
45621;BME280;31345;51.522;10.702;2024-02-26T08:40:22;97843.84;;;3.25;100.00
45621;BME280;31345;51.522;10.702;2024-02-26T08:42:50;97847.75;;;3.33;100.00
45621;BME280;31345;51.522;10.702;2024-02-26T08:45:22;97839.78;;;3.36;100.00
45621;BME280;31345;51.522;10.702;2024-02-26T08:47:50;97851.59;;;3.25;100.00
45621;BME280;31345;51.522;10.702;2024-02-26T08:50:18;97843.16;;;3.22;100.00
45621;BME280;31345;51.522;10.702;2024-02-26T08:52:46;97843.47;;;3.32;100.00
45621;BME280;31345;51.522;10.702;2024-02-26T08:55:18;97845.16;;;3.33;100.00
45621;BME280;31345;51.522;10.702;2024-02-26T08:57:50;97843.84;;;3.56;100.00
45621;BME280;31345;51.522;10.702;2024-02-26T09:00:18;97842.75;;;3.60;100.00
45621;BME280;31345;51.522;10.702;2024-02-26T09:02:47;97834.91;;;3.62;100.00
45621;BME280;31345;51.522;10.702;2024-02-26T09:05:20;97829.47;;;3.66;100.00
45621;BME280;31345;51.522;10.702;2024-02-26T09:07:53;97825.38;;;3.62;100.00
45621;BME280;31345;51.522;10.702;2024-02-26T09:10:22;97830.75;;;3.59;100.00
45621;BME280;31345;51.522;10.702;2024-02-26T09:12:50;97827.50;;;3.55;100.00
45621;BME280;31345;51.522;10.702;2024-02-26T09:15:18;97829.47;;;3.66;100.00
45621;BME280;31345;51.522;10.702;2024-02-26T09:17:45;97826.78;;;3.68;100.00
45621;BME280;31345;51.522;10.702;2024-02-26T09:20:16;97835.59;;;3.80;100.00
45621;BME280;31345;51.522;10.702;2024-02-26T09:22:51;97835.88;;;3.90;100.00
45621;BME280;31345;51.522;10.702;2024-02-26T09:25:26;97830.16;;;3.85;100.00
45621;BME280;31345;51.522;10.702;2024-02-26T09:27:59;97832.91;;;3.96;100.00
45621;BME280;31345;51.522;10.702;2024-02-26T09:30:26;97835.91;;;4.04;100.00
45621;BME280;31345;51.522;10.702;2024-02-26T09:32:59;97826.03;;;4.11;100.00
45621;BME280;31345;51.522;10.702;2024-02-26T09:35:27;97825.09;;;4.27;100.00
45621;BME280;31345;51.522;10.702;2024-02-26T09:38:00;97838.13;;;4.25;100.00
45621;BME280;31345;51.522;10.702;2024-02-26T09:40:34;97832.22;;;4.38;100.00
45621;BME280;31345;51.522;10.702;2024-02-26T09:43:10;97834.78;;;4.38;100.00
45621;BME280;31345;51.522;10.702;2024-02-26T09:45:46;97839.59;;;4.29;100.00
45621;BME280;31345;51.522;10.702;2024-02-26T09:48:15;97842.00;;;4.18;100.00
45621;BME280;31345;51.522;10.702;2024-02-26T09:50:49;97845.44;;;4.18;100.00
45621;BME280;31345;51.522;10.702;2024-02-26T09:53:22;97848.47;;;4.11;100.00
45621;BME280;31345;51.522;10.702;2024-02-26T09:55:57;97857.69;;;4.15;100.00
45621;BME280;31345;51.522;10.702;2024-02-26T09:58:29;97845.06;;;4.39;100.00
45621;BME280;31345;51.522;10.702;2024-02-26T10:01:04;97846.97;;;4.50;100.00
45621;BME280;31345;51.522;10.702;2024-02-26T10:03:39;97839.09;;;4.66;100.00
45621;BME280;31345;51.522;10.702;2024-02-26T10:06:13;97838.72;;;4.72;100.00
45621;BME280;31345;51.522;10.702;2024-02-26T10:08:41;97838.09;;;4.69;100.00
45621;BME280;31345;51.522;10.702;2024-02-26T10:11:13;97833.88;;;4.95;100.00
45621;BME280;31345;51.522;10.702;2024-02-26T10:13:42;97842.84;;;5.17;100.00
45621;BME280;31345;51.522;10.702;2024-02-26T10:16:14;97832.06;;;5.10;100.00
45621;BME280;31345;51.522;10.702;2024-02-26T10:18:47;97836.97;;;5.28;100.00
45621;BME280;31345;51.522;10.702;2024-02-26T10:21:20;97831.50;;;5.33;100.00
45621;BME280;31345;51.522;10.702;2024-02-26T10:23:53;97834.28;;;5.30;100.00
45621;BME280;31345;51.522;10.702;2024-02-26T10:26:27;97848.63;;;5.35;100.00
45621;BME280;31345;51.522;10.702;2024-02-26T10:28:59;97846.56;;;5.41;100.00
45621;BME280;31345;51.522;10.702;2024-02-26T10:31:27;97850.69;;;5.30;100.00
45621;BME280;31345;51.522;10.702;2024-02-26T10:34:00;97847.50;;;5.40;100.00
45621;BME280;31345;51.522;10.702;2024-02-26T10:36:33;97846.50;;;5.55;100.00
45621;BME280;31345;51.522;10.702;2024-02-26T10:39:01;97858.56;;;5.69;100.00
45621;BME280;31345;51.522;10.702;2024-02-26T10:41:32;97857.63;;;5.83;100.00
45621;BME280;31345;51.522;10.702;2024-02-26T10:44:00;97860.38;;;6.08;100.00
45621;BME280;31345;51.522;10.702;2024-02-26T10:46:34;97868.66;;;6.26;100.00
45621;BME280;31345;51.522;10.702;2024-02-26T10:49:13;97867.72;;;6.27;100.00
45621;BME280;31345;51.522;10.702;2024-02-26T10:51:44;97870.72;;;6.34;100.00
45621;BME280;31345;51.522;10.702;2024-02-26T10:54:15;97862.84;;;6.35;100.00
45621;BME280;31345;51.522;10.702;2024-02-26T10:56:46;97867.59;;;6.54;100.00
45621;BME280;31345;51.522;10.702;2024-02-26T10:59:22;97867.91;;;6.63;100.00
45621;BME280;31345;51.522;10.702;2024-02-26T11:01:50;97864.91;;;6.56;100.00
45621;BME280;31345;51.522;10.702;2024-02-26T11:04:23;97861.75;;;6.77;100.00
45621;BME280;31345;51.522;10.702;2024-02-26T11:06:54;97863.13;;;6.70;100.00
45621;BME280;31345;51.522;10.702;2024-02-26T11:09:29;97864.97;;;6.81;100.00
45621;BME280;31345;51.522;10.702;2024-02-26T11:12:04;97867.56;;;6.81;100.00
45621;BME280;31345;51.522;10.702;2024-02-26T11:14:43;97870.44;;;6.89;100.00
45621;BME280;31345;51.522;10.702;2024-02-26T11:17:17;97875.13;;;6.97;100.00
45621;BME280;31345;51.522;10.702;2024-02-26T11:19:48;97871.84;;;7.06;100.00
45621;BME280;31345;51.522;10.702;2024-02-26T11:22:22;97874.28;;;6.96;100.00
45621;BME280;31345;51.522;10.702;2024-02-26T11:24:57;97873.38;;;7.22;100.00
45621;BME280;31345;51.522;10.702;2024-02-26T11:27:39;97866.97;;;7.50;100.00
45621;BME280;31345;51.522;10.702;2024-02-26T11:30:10;97869.66;;;7.62;100.00
45621;BME280;31345;51.522;10.702;2024-02-26T11:32:44;97863.44;;;7.76;100.00
45621;BME280;31345;51.522;10.702;2024-02-26T11:35:13;97854.09;;;7.73;99.82
45621;BME280;31345;51.522;10.702;2024-02-26T11:37:51;97850.16;;;7.67;99.13
45621;BME280;31345;51.522;10.702;2024-02-26T11:40:24;97856.53;;;7.63;100.00
45621;BME280;31345;51.522;10.702;2024-02-26T11:42:58;97860.69;;;7.66;100.00
45621;BME280;31345;51.522;10.702;2024-02-26T11:45:50;97859.78;;;7.78;100.00
45621;BME280;31345;51.522;10.702;2024-02-26T11:48:24;97861.41;;;7.68;99.63
45621;BME280;31345;51.522;10.702;2024-02-26T11:50:53;97861.03;;;7.61;100.00
45621;BME280;31345;51.522;10.702;2024-02-26T11:53:27;97866.41;;;7.71;100.00
45621;BME280;31345;51.522;10.702;2024-02-26T11:56:19;97871.06;;;7.90;99.66
45621;BME280;31345;51.522;10.702;2024-02-26T11:59:04;97865.81;;;7.79;99.82
45621;BME280;31345;51.522;10.702;2024-02-26T12:01:45;97868.13;;;8.06;100.00
45621;BME280;31345;51.522;10.702;2024-02-26T12:04:19;97872.50;;;8.06;98.44
45621;BME280;31345;51.522;10.702;2024-02-26T12:06:51;97874.22;;;7.82;98.79
45621;BME280;31345;51.522;10.702;2024-02-26T12:09:32;97875.88;;;7.84;100.00
45621;BME280;31345;51.522;10.702;2024-02-26T12:12:05;97875.78;;;7.97;100.00
45621;BME280;31345;51.522;10.702;2024-02-26T12:14:38;97872.00;;;7.89;100.00
45621;BME280;31345;51.522;10.702;2024-02-26T12:17:20;97872.69;;;7.91;99.52
45621;BME280;31345;51.522;10.702;2024-02-26T12:19:47;97871.41;;;7.97;99.19
45621;BME280;31345;51.522;10.702;2024-02-26T12:22:15;97868.13;;;8.06;98.97
45621;BME280;31345;51.522;10.702;2024-02-26T12:24:58;97869.94;;;8.17;98.80
45621;BME280;31345;51.522;10.702;2024-02-26T12:27:27;97869.78;;;8.07;98.31
45621;BME280;31345;51.522;10.702;2024-02-26T12:30:01;97864.00;;;8.15;98.25
45621;BME280;31345;51.522;10.702;2024-02-26T12:32:29;97877.47;;;8.20;99.79
45621;BME280;31345;51.522;10.702;2024-02-26T12:34:58;97871.34;;;8.10;98.91
45621;BME280;31345;51.522;10.702;2024-02-26T12:37:32;97882.94;;;8.17;97.58
45621;BME280;31345;51.522;10.702;2024-02-26T12:39:59;97884.31;;;7.99;98.06
45621;BME280;31345;51.522;10.702;2024-02-26T12:42:27;97888.53;;;7.88;98.17
45621;BME280;31345;51.522;10.702;2024-02-26T12:44:55;97888.81;;;8.08;99.47
45621;BME280;31345;51.522;10.702;2024-02-26T12:47:29;97895.31;;;7.91;98.57
45621;BME280;31345;51.522;10.702;2024-02-26T12:50:02;97892.03;;;8.00;96.95
45621;BME280;31345;51.522;10.702;2024-02-26T12:52:31;97897.44;;;7.97;96.90
45621;BME280;31345;51.522;10.702;2024-02-26T12:55:05;97898.41;;;7.96;97.93
45621;BME280;31345;51.522;10.702;2024-02-26T12:57:40;97892.72;;;8.02;98.07
45621;BME280;31345;51.522;10.702;2024-02-26T13:00:17;97891.31;;;8.10;97.42
45621;BME280;31345;51.522;10.702;2024-02-26T13:02:47;97894.75;;;8.10;96.82
45621;BME280;31345;51.522;10.702;2024-02-26T13:05:21;97890.13;;;8.14;95.57
45621;BME280;31345;51.522;10.702;2024-02-26T13:07:49;97902.44;;;8.00;96.58